Time;durP1;ratioP1;P1;durP2;ratioP2;P2;SDS_P1;SDS_P2;PMS_P1;PMS_P2;Temp;Humidity;BMP_temperature;BMP_pressure;BME280_temperature;BME280_humidity;BME280_pressure;Samples;Min_cycle;Max_cycle;Signal;HPM_P1;HPM_P2
2023/01/29 00:02:13;;;;;;;25.90;14.02;;;-1.80;99.90;;;;;;5081241;28;25048;-72
2023/01/29 00:04:41;;;;;;;29.60;13.40;;;-1.70;99.90;;;;;;5081247;28;25075;-72
2023/01/29 00:07:08;;;;;;;31.17;14.00;;;-1.70;99.90;;;;;;5099108;28;25076;-72
2023/01/29 00:09:35;;;;;;;31.50;15.52;;;-1.70;99.90;;;;;;5081271;28;25068;-72
2023/01/29 00:12:02;;;;;;;34.78;16.35;;;-1.60;99.90;;;;;;5098958;28;25085;-72
2023/01/29 00:14:30;;;;;;;31.02;15.80;;;-1.60;99.90;;;;;;5099573;28;25076;-72
2023/01/29 00:16:57;;;;;;;33.55;15.00;;;-1.60;99.90;;;;;;5081011;28;25074;-72
2023/01/29 00:19:24;;;;;;;32.80;15.23;;;-1.60;99.90;;;;;;5081240;28;25114;-72
2023/01/29 00:21:51;;;;;;;31.83;15.57;;;-1.50;99.90;;;;;;5080616;28;25061;-72
2023/01/29 00:24:18;;;;;;;30.52;14.02;;;-1.50;99.90;;;;;;5080450;28;25076;-72
2023/01/29 00:26:48;;;;;;;33.95;16.90;;;-1.50;99.90;;;;;;5099041;28;25125;-72
2023/01/29 00:29:16;;;;;;;31.35;14.52;;;-1.40;99.90;;;;;;5098436;28;25065;-71
2023/01/29 00:31:45;;;;;;;27.65;13.05;;;-1.40;99.90;;;;;;5098610;28;25083;-72
2023/01/29 00:34:12;;;;;;;31.58;15.80;;;-1.40;99.90;;;;;;5080621;28;25043;-72
2023/01/29 00:36:39;;;;;;;32.20;15.27;;;-1.30;99.90;;;;;;5080970;28;25112;-71
2023/01/29 00:39:09;;;;;;;34.80;14.65;;;-1.30;99.90;;;;;;5098605;28;25124;-72
2023/01/29 00:49:54;;;;;;;31.73;15.10;;;-1.20;99.90;;;;;;5083244;28;25099;-72
2023/01/29 00:52:25;;;;;;;29.65;14.48;;;-1.20;99.90;;;;;;5080313;28;25095;-72
2023/01/29 00:54:54;;;;;;;29.17;14.13;;;-1.20;99.90;;;;;;5098374;28;25139;-72
2023/01/29 00:57:23;;;;;;;32.40;15.68;;;-1.20;99.90;;;;;;5098658;28;25061;-72
2023/01/29 00:59:50;;;;;;;31.60;14.85;;;-1.10;99.90;;;;;;5098155;28;25060;-72
2023/01/29 01:05:06;;;;;;;32.50;16.15;;;-1.10;99.90;;;;;;5098469;28;25103;-72
2023/01/29 01:07:34;;;;;;;32.05;14.27;;;-1.10;99.90;;;;;;5098192;28;25077;-72
2023/01/29 01:12:55;;;;;;;24.02;12.40;;;-1.10;99.90;;;;;;5098073;28;25066;-72
2023/01/29 01:15:25;;;;;;;31.98;15.65;;;-1.10;99.90;;;;;;5080004;28;25088;-71
2023/01/29 01:17:58;;;;;;;30.20;14.93;;;-1.10;99.90;;;;;;5079760;28;25060;-72
2023/01/29 01:20:27;;;;;;;37.17;16.52;;;-1.10;99.90;;;;;;5097729;28;25072;-71
2023/01/29 01:22:54;;;;;;;39.58;15.80;;;-1.10;99.90;;;;;;5079677;28;25063;-72
2023/01/29 01:25:23;;;;;;;31.95;14.40;;;-1.10;99.90;;;;;;5079792;28;25132;-71
2023/01/29 01:27:58;;;;;;;31.83;15.10;;;-1.10;99.90;;;;;;5098111;28;25059;-71
2023/01/29 01:30:26;;;;;;;29.83;13.85;;;-1.10;99.90;;;;;;5079480;28;25056;-72
2023/01/29 01:32:53;;;;;;;29.80;14.55;;;-1.00;99.90;;;;;;5079880;28;25078;-72
2023/01/29 01:35:20;;;;;;;36.63;13.98;;;-1.00;99.90;;;;;;5079356;28;25121;-72
2023/01/29 01:37:47;;;;;;;29.95;13.65;;;-1.00;99.90;;;;;;5079574;28;25079;-72
2023/01/29 01:40:23;;;;;;;29.20;13.70;;;-1.00;99.90;;;;;;5097919;28;25059;-72
2023/01/29 01:42:53;;;;;;;35.97;15.15;;;-1.00;99.90;;;;;;5075723;28;25078;-72
2023/01/29 01:45:28;;;;;;;31.85;14.52;;;-1.00;99.90;;;;;;5076914;28;25067;-72
2023/01/29 01:48:16;;;;;;;33.20;14.52;;;-1.00;99.90;;;;;;5076871;28;25067;-71
2023/01/29 01:50:53;;;;;;;31.35;14.32;;;-1.00;99.90;;;;;;5077090;28;25068;-71
2023/01/29 01:53:33;;;;;;;31.85;14.70;;;-1.00;99.90;;;;;;5075789;28;25060;-71
2023/01/29 01:56:06;;;;;;;33.60;14.93;;;-1.00;99.90;;;;;;5076753;28;25063;-71
2023/01/29 01:58:49;;;;;;;31.95;14.00;;;-1.00;99.90;;;;;;5077290;28;25082;-72
2023/01/29 02:01:17;;;;;;;30.88;14.63;;;-1.00;99.90;;;;;;5076860;28;25087;-72
2023/01/29 02:09:51;;;;;;;25.17;10.90;;;-1.00;99.90;;;;;;5076992;28;25054;-72
2023/01/29 02:12:19;;;;;;;;;;;-1.00;99.90;;;;;;5076935;28;25098;-72
2023/01/29 02:14:47;;;;;;;31.35;14.55;;;-1.00;99.90;;;;;;5075548;28;24054;-71
2023/01/29 02:17:16;;;;;;;33.40;14.10;;;-1.00;99.90;;;;;;5076493;28;25064;-72
2023/01/29 02:20:05;;;;;;;29.38;14.15;;;-1.00;99.90;;;;;;5076674;28;25072;-72
2023/01/29 02:22:54;;;;;;;34.35;15.02;;;-1.00;99.90;;;;;;5076360;28;25087;-72
2023/01/29 02:25:43;;;;;;;34.25;15.07;;;-1.00;99.90;;;;;;5076383;28;25102;-72
2023/01/29 02:28:29;;;;;;;27.63;13.57;;;-0.90;99.90;;;;;;5076331;28;25124;-71
2023/01/29 02:31:06;;;;;;;31.58;13.80;;;-1.00;99.90;;;;;;5076810;28;25071;-72
2023/01/29 02:33:44;;;;;;;31.20;15.48;;;-1.00;99.90;;;;;;5076900;28;25067;-72
2023/01/29 02:36:33;;;;;;;35.30;16.38;;;-0.90;99.90;;;;;;5076871;28;25079;-71
2023/01/29 02:39:17;;;;;;;31.33;14.82;;;-0.90;99.90;;;;;;5076805;28;25072;-71
2023/01/29 02:41:55;;;;;;;38.65;15.88;;;-1.00;99.90;;;;;;5076267;28;25070;-72
2023/01/29 02:44:42;;;;;;;35.10;16.48;;;-1.00;99.90;;;;;;5093490;28;25060;-71
2023/01/29 02:47:15;;;;;;;;;;;-1.00;99.90;;;;;;5082628;28;25060;-72
2023/01/29 02:50:00;;;;;;;30.52;14.68;;;-1.00;99.90;;;;;;5101018;28;24070;-71
2023/01/29 02:53:00;;;;;;;32.65;14.43;;;-1.00;99.90;;;;;;5100768;28;25061;-72
2023/01/29 02:55:52;;;;;;;34.28;14.52;;;-1.00;99.90;;;;;;5101074;28;25075;-71
2023/01/29 02:58:22;;;;;;;35.10;16.33;;;-1.00;99.90;;;;;;5100420;28;25061;-72
2023/01/29 03:00:51;;;;;;;32.40;15.80;;;-1.00;99.90;;;;;;5100591;28;25110;-72
2023/01/29 03:03:26;;;;;;;32.67;15.30;;;-1.00;99.90;;;;;;5100335;28;25053;-72
2023/01/29 03:06:07;;;;;;;39.83;16.25;;;-1.00;99.90;;;;;;5100303;28;25093;-71
2023/01/29 03:09:04;;;;;;;36.38;14.95;;;-1.00;99.90;;;;;;5100281;28;25114;-71
2023/01/29 03:11:40;;;;;;;37.72;14.52;;;-1.00;99.90;;;;;;5100221;28;25059;-72
2023/01/29 03:14:18;;;;;;;36.50;15.63;;;-1.00;99.90;;;;;;5082205;28;25102;-72
2023/01/29 03:16:50;;;;;;;31.73;15.50;;;-1.00;99.90;;;;;;5100115;28;25078;-71
2023/01/29 03:19:33;;;;;;;33.13;15.93;;;-1.00;99.90;;;;;;5100761;28;25065;-71
2023/01/29 03:22:03;;;;;;;30.55;14.15;;;-1.00;99.90;;;;;;5099893;28;25065;-71
2023/01/29 03:33:23;;;;;;;37.92;15.88;;;-0.90;99.90;;;;;;5099845;28;25054;-71
2023/01/29 03:35:59;;;;;;;30.55;14.82;;;-0.90;99.90;;;;;;5099795;28;25073;-72
2023/01/29 03:38:28;;;;;;;30.17;14.05;;;-0.80;99.90;;;;;;5099640;28;25068;-71
2023/01/29 03:41:14;;;;;;;38.05;15.82;;;-0.80;99.90;;;;;;5099570;28;25080;-71
2023/01/29 03:43:55;;;;;;;40.28;17.45;;;-0.80;99.90;;;;;;5099550;28;25062;-71
2023/01/29 03:46:41;;;;;;;34.20;14.98;;;-0.80;99.90;;;;;;5081515;28;25072;-72
2023/01/29 03:49:28;;;;;;;34.83;14.50;;;-0.80;99.90;;;;;;5099769;28;25069;-71
2023/01/29 03:52:18;;;;;;;36.38;15.73;;;-0.80;99.90;;;;;;5100029;28;25050;-72
2023/01/29 03:54:56;;;;;;;33.72;15.07;;;-0.80;99.90;;;;;;5099175;28;25133;-71
2023/01/29 03:57:44;;;;;;;36.75;15.55;;;-0.80;99.90;;;;;;5098144;28;25138;-72
2023/01/29 04:00:38;;;;;;;36.35;16.27;;;-0.90;99.90;;;;;;5099550;28;25103;-72
2023/01/29 04:03:15;;;;;;;35.13;14.48;;;-0.80;99.90;;;;;;5099075;28;25061;-71
2023/01/29 04:06:04;;;;;;;30.38;13.00;;;-0.80;99.90;;;;;;5099728;28;25084;-72
2023/01/29 04:08:52;;;;;;;37.80;16.23;;;-0.80;99.90;;;;;;5099881;28;25116;-72
2023/01/29 04:11:21;;;;;;;45.22;17.30;;;-0.80;99.90;;;;;;5099191;28;25065;-71
2023/01/29 04:13:49;;;;;;;36.88;17.30;;;-0.80;99.90;;;;;;5099052;28;25096;-71
2023/01/29 04:16:24;;;;;;;42.00;17.02;;;-0.80;99.90;;;;;;5099492;28;25141;-71
2023/01/29 04:18:53;;;;;;;36.00;15.88;;;-0.80;99.90;;;;;;5099386;28;25082;-71
2023/01/29 04:21:20;;;;;;;34.25;16.17;;;-0.90;99.90;;;;;;5098793;28;25129;-72
2023/01/29 04:23:47;;;;;;;37.42;15.73;;;-0.80;99.90;;;;;;5081394;28;25067;-72
2023/01/29 04:26:55;;;;;;;39.63;14.93;;;-0.80;99.90;;;;;;5080843;28;25050;-71
2023/01/29 04:29:37;;;;;;;44.33;17.30;;;-0.80;99.90;;;;;;5064342;28;25088;-71
2023/01/29 04:32:21;;;;;;;38.85;15.45;;;-0.90;99.90;;;;;;5098668;28;25083;-71
2023/01/29 04:35:04;;;;;;;38.45;15.85;;;-0.80;99.90;;;;;;5080716;28;25062;-71
2023/01/29 04:37:57;;;;;;;43.28;17.35;;;-0.80;99.90;;;;;;5099084;28;25120;-72
2023/01/29 04:40:51;;;;;;;49.78;18.55;;;-0.80;99.90;;;;;;5098922;28;25076;-71
2023/01/29 04:43:28;;;;;;;42.90;16.60;;;-0.80;99.90;;;;;;5098393;28;25055;-71
2023/01/29 04:46:04;;;;;;;42.45;17.98;;;-0.80;99.90;;;;;;5098441;28;25081;-71
2023/01/29 04:48:47;;;;;;;38.35;15.63;;;-0.80;99.90;;;;;;5098809;28;25083;-71
2023/01/29 04:51:41;;;;;;;44.58;16.77;;;-0.80;99.90;;;;;;5098190;28;25071;-71
2023/01/29 04:54:17;;;;;;;41.33;18.10;;;-0.80;99.90;;;;;;5098551;28;25061;-71
2023/01/29 04:56:51;;;;;;;;;;;-0.80;99.90;;;;;;5099163;28;25117;-71
2023/01/29 04:59:31;;;;;;;39.63;14.57;;;-0.80;99.90;;;;;;5098231;28;25133;-71
2023/01/29 05:02:01;;;;;;;37.72;15.95;;;-0.80;99.90;;;;;;5098632;28;25066;-72
2023/01/29 05:04:32;;;;;;;37.97;16.13;;;-0.80;99.90;;;;;;5097997;28;25113;-71
2023/01/29 05:07:04;;;;;;;33.03;14.43;;;-0.70;99.90;;;;;;5098478;28;25062;-71
2023/01/29 05:09:34;;;;;;;36.83;16.58;;;-0.70;99.90;;;;;;5097756;28;25079;-71
2023/01/29 05:12:02;;;;;;;40.30;15.98;;;-0.70;99.90;;;;;;5097897;28;25102;-72
2023/01/29 05:14:31;;;;;;;37.33;15.75;;;-0.70;99.90;;;;;;5079892;28;25074;-71
2023/01/29 05:17:03;;;;;;;36.33;15.55;;;-0.70;99.90;;;;;;5097976;28;25061;-72
2023/01/29 05:19:30;;;;;;;31.10;13.02;;;-0.70;99.90;;;;;;5097756;28;25108;-71
2023/01/29 05:21:59;;;;;;;32.35;14.40;;;-0.70;99.90;;;;;;5079718;28;25115;-71
2023/01/29 05:24:26;;;;;;;30.63;13.65;;;-0.70;99.90;;;;;;5097679;28;25053;-71
2023/01/29 05:29:46;;;;;;;38.28;16.05;;;-0.70;99.90;;;;;;5097559;28;25055;-71
2023/01/29 05:32:15;;;;;;;32.65;14.40;;;-0.70;99.90;;;;;;5098320;28;25086;-71
2023/01/29 05:34:42;;;;;;;31.98;14.73;;;-0.70;99.90;;;;;;5097657;28;24791;-71
2023/01/29 05:37:10;;;;;;;34.63;14.65;;;-0.70;99.90;;;;;;5079452;28;25091;-71
2023/01/29 05:39:37;;;;;;;36.78;16.20;;;-0.70;99.90;;;;;;5097989;28;25116;-71
2023/01/29 05:42:04;;;;;;;32.22;14.40;;;-0.70;99.90;;;;;;5097889;28;25063;-71
2023/01/29 05:44:32;;;;;;;35.50;14.75;;;-0.70;99.90;;;;;;5075914;28;25119;-71
2023/01/29 05:47:01;;;;;;;35.33;15.88;;;-0.70;99.90;;;;;;5075910;28;25062;-71
2023/01/29 05:49:29;;;;;;;36.53;15.10;;;-0.60;99.90;;;;;;5076707;28;25111;-71
2023/01/29 05:51:56;;;;;;;35.83;15.40;;;-0.60;99.90;;;;;;5075814;28;25081;-71
2023/01/29 05:54:23;;;;;;;32.38;14.23;;;-0.60;99.90;;;;;;5076965;28;25062;-71
2023/01/29 05:56:50;;;;;;;33.55;15.90;;;-0.60;99.90;;;;;;5076815;28;25060;-71
2023/01/29 05:59:19;;;;;;;37.72;15.55;;;-0.70;99.90;;;;;;5076353;28;25086;-71
2023/01/29 06:01:46;;;;;;;36.47;16.48;;;-0.60;99.90;;;;;;5076777;28;25156;-71
2023/01/29 06:04:13;;;;;;;34.30;15.15;;;-0.60;99.90;;;;;;5075799;28;25066;-71
2023/01/29 06:06:40;;;;;;;33.10;14.45;;;-0.60;99.90;;;;;;5076579;28;25068;-71
2023/01/29 06:09:09;;;;;;;33.60;16.20;;;-0.60;99.90;;;;;;5075503;28;25055;-72
2023/01/29 06:11:36;;;;;;;36.80;14.95;;;-0.60;99.90;;;;;;5075526;28;25046;-71
2023/01/29 06:14:04;;;;;;;37.20;16.02;;;-0.60;99.90;;;;;;5077317;28;25074;-71
2023/01/29 06:16:31;;;;;;;37.25;14.13;;;-0.60;99.90;;;;;;5076544;28;25070;-71
2023/01/29 06:18:58;;;;;;;36.65;16.30;;;-0.60;99.90;;;;;;5076483;28;25122;-72
2023/01/29 06:21:25;;;;;;;37.78;15.52;;;-0.60;99.90;;;;;;5076486;28;25112;-71
2023/01/29 06:23:53;;;;;;;38.55;16.52;;;-0.60;99.90;;;;;;5075518;28;25076;-71
2023/01/29 06:26:21;;;;;;;39.30;17.30;;;-0.60;99.90;;;;;;5076368;28;25133;-71
2023/01/29 06:28:51;;;;;;;38.58;16.50;;;-0.60;99.90;;;;;;5076782;28;25077;-71
2023/01/29 06:31:18;;;;;;;40.03;15.70;;;-0.60;99.90;;;;;;5076341;28;25060;-71
2023/01/29 06:33:46;;;;;;;39.00;16.80;;;-0.60;99.90;;;;;;5076316;28;25119;-71
2023/01/29 06:36:13;;;;;;;35.00;15.30;;;-0.60;99.90;;;;;;5076878;28;25133;-71
2023/01/29 06:38:40;;;;;;;39.88;16.83;;;-0.60;99.90;;;;;;5076952;28;25069;-71
2023/01/29 06:41:12;;;;;;;41.10;17.98;;;-0.60;99.90;;;;;;5075372;28;25124;-71
2023/01/29 06:43:39;;;;;;;34.88;15.55;;;-0.60;99.90;;;;;;5086941;28;25077;-71
2023/01/29 06:46:08;;;;;;;39.50;17.77;;;-0.60;99.90;;;;;;5079349;28;25091;-71
2023/01/29 06:48:38;;;;;;;41.03;18.98;;;-0.60;99.90;;;;;;5078337;28;25055;-71
2023/01/29 06:51:07;;;;;;;40.30;17.08;;;-0.60;99.90;;;;;;5096616;28;25051;-71
2023/01/29 06:53:35;;;;;;;36.88;16.48;;;-0.50;99.90;;;;;;5096288;28;25072;-72
2023/01/29 06:56:03;;;;;;;43.25;17.15;;;-0.60;99.90;;;;;;5096258;28;25086;-71
2023/01/29 06:58:31;;;;;;;37.08;16.27;;;-0.60;99.90;;;;;;5078344;28;25053;-71
2023/01/29 07:01:09;;;;;;;40.72;15.05;;;-0.60;99.90;;;;;;5096673;28;25088;-71
2023/01/29 07:03:36;;;;;;;41.45;17.35;;;-0.60;99.90;;;;;;5078312;28;25056;-71
2023/01/29 07:06:04;;;;;;;43.65;17.80;;;-0.60;99.90;;;;;;5096187;28;25145;-79
2023/01/29 07:08:36;;;;;;;38.05;16.65;;;-0.60;99.90;;;;;;5077597;28;25115;-76
2023/01/29 07:11:06;;;;;;;41.83;17.38;;;-0.60;99.90;;;;;;5096727;28;25134;-78
2023/01/29 07:13:33;;;;;;;34.80;15.63;;;-0.70;99.90;;;;;;5096173;28;25071;-84
2023/01/29 07:16:02;;;;;;;46.20;18.30;;;-0.70;99.90;;;;;;5078296;28;25109;-89
2023/01/29 07:18:30;;;;;;;43.33;16.75;;;-0.70;99.90;;;;;;5078497;28;25068;-83
2023/01/29 07:20:57;;;;;;;43.83;18.33;;;-0.70;99.90;;;;;;5096596;28;25046;-81
2023/01/29 07:23:25;;;;;;;37.67;16.88;;;-0.70;99.90;;;;;;5078154;28;25133;-83
2023/01/29 07:25:53;;;;;;;41.15;16.33;;;-0.70;99.90;;;;;;5096390;28;25099;-81
2023/01/29 07:28:20;;;;;;;45.85;19.13;;;-0.70;99.90;;;;;;5096321;28;25055;-79
2023/01/29 07:30:48;;;;;;;43.83;19.65;;;-0.70;99.90;;;;;;5096408;28;25127;-82
2023/01/29 07:33:15;;;;;;;48.97;19.70;;;-0.70;99.90;;;;;;5098841;28;25110;-78
2023/01/29 07:35:43;;;;;;;51.42;20.40;;;-0.70;99.90;;;;;;5099826;28;25123;-79
2023/01/29 07:38:11;;;;;;;35.22;15.27;;;-0.80;99.90;;;;;;5081654;28;25119;-78
2023/01/29 07:40:38;;;;;;;49.20;19.45;;;-0.80;99.90;;;;;;5100155;28;25067;-74
2023/01/29 07:43:07;;;;;;;49.78;20.23;;;-0.80;99.90;;;;;;5099407;28;25053;-77
2023/01/29 07:45:39;;;;;;;40.67;17.20;;;-0.70;99.90;;;;;;5081580;28;25074;-76
2023/01/29 07:48:09;;;;;;;48.75;19.77;;;-0.80;99.90;;;;;;5081592;28;25137;-81
2023/01/29 07:50:36;;;;;;;50.53;20.98;;;-0.80;99.90;;;;;;5081457;28;25060;-78
2023/01/29 07:53:04;;;;;;;50.35;21.83;;;-0.80;99.90;;;;;;5081497;28;25053;-76
2023/01/29 07:55:32;;;;;;;48.08;21.23;;;-0.80;99.90;;;;;;5099710;28;25136;-76
2023/01/29 07:58:04;;;;;;;47.55;18.83;;;-0.80;99.90;;;;;;5099379;28;25073;-76
2023/01/29 08:00:32;;;;;;;42.88;19.08;;;-0.80;99.90;;;;;;5099613;28;25112;-76
2023/01/29 08:03:10;;;;;;;47.35;21.15;;;-0.70;99.90;;;;;;5099534;28;25099;-77
2023/01/29 08:05:38;;;;;;;53.22;20.48;;;-0.70;99.90;;;;;;5081389;28;25066;-76
2023/01/29 08:08:05;;;;;;;51.70;20.95;;;-0.70;99.90;;;;;;5099179;28;25061;-78
2023/01/29 08:10:34;;;;;;;53.28;21.80;;;-0.70;99.90;;;;;;5099049;28;25079;-76
2023/01/29 08:13:02;;;;;;;45.67;20.05;;;-0.60;99.90;;;;;;5081173;28;25049;-80
2023/01/29 08:15:30;;;;;;;51.13;21.55;;;-0.60;99.90;;;;;;5081291;28;25104;-80
2023/01/29 08:17:57;;;;;;;58.22;24.17;;;-0.50;99.90;;;;;;5098992;28;25091;-78
2023/01/29 08:20:25;;;;;;;45.60;21.85;;;-0.50;99.90;;;;;;5098976;28;25128;-84
2023/01/29 08:23:00;;;;;;;57.45;22.83;;;-0.50;99.90;;;;;;5080527;28;25056;-83
2023/01/29 08:25:29;;;;;;;44.53;17.80;;;-0.40;99.90;;;;;;5081107;28;25117;-84
2023/01/29 08:27:57;;;;;;;46.13;19.52;;;-0.30;99.90;;;;;;5080872;28;25059;-78
2023/01/29 08:30:27;;;;;;;54.83;21.50;;;-0.30;99.90;;;;;;5098722;28;25080;-78
2023/01/29 08:32:54;;;;;;;44.50;19.15;;;-0.20;99.90;;;;;;5098672;28;25081;-77
2023/01/29 08:35:22;;;;;;;45.60;17.85;;;-0.20;99.90;;;;;;5098807;28;25095;-77
2023/01/29 08:38:00;;;;;;;49.10;20.35;;;-0.10;99.90;;;;;;5080666;28;25069;-77
2023/01/29 08:40:33;;;;;;;44.35;18.88;;;-0.10;99.90;;;;;;5080662;28;25163;-72
2023/01/29 08:43:02;;;;;;;39.90;17.52;;;-0.10;99.90;;;;;;5097902;28;25141;-75
2023/01/29 08:45:29;;;;;;;44.97;18.23;;;-0.10;99.90;;;;;;5080595;28;25127;-76
2023/01/29 08:47:57;;;;;;;72.32;21.50;;;-0.10;99.90;;;;;;5098428;28;25117;-76
2023/01/29 08:50:24;;;;;;;40.35;17.08;;;-0.10;99.90;;;;;;5098452;28;25068;-76
2023/01/29 08:52:57;;;;;;;45.33;18.92;;;0.00;99.90;;;;;;5098842;28;25075;-76
2023/01/29 08:55:26;;;;;;;40.85;18.13;;;0.00;99.90;;;;;;5098969;28;25112;-75
2023/01/29 08:57:53;;;;;;;43.05;18.98;;;0.00;99.90;;;;;;5098160;28;25114;-75
2023/01/29 09:00:20;;;;;;;42.17;18.17;;;0.00;99.90;;;;;;5098380;28;25060;-76
2023/01/29 09:02:48;;;;;;;45.80;18.67;;;0.00;99.90;;;;;;5098938;28;25113;-78
2023/01/29 09:05:15;;;;;;;46.72;19.38;;;0.10;99.90;;;;;;5098356;28;25074;-74
2023/01/29 09:07:42;;;;;;;47.75;19.52;;;0.10;99.90;;;;;;5098542;28;25064;-70
2023/01/29 09:10:11;;;;;;;47.45;18.60;;;0.20;99.90;;;;;;5097796;28;25103;-70
2023/01/29 09:12:38;;;;;;;47.13;19.25;;;0.20;99.90;;;;;;5097864;28;25082;-74
2023/01/29 09:15:06;;;;;;;45.28;18.27;;;0.30;99.90;;;;;;5079940;28;25071;-77
2023/01/29 09:17:33;;;;;;;41.70;19.48;;;0.40;99.90;;;;;;5097804;28;25059;-76
2023/01/29 09:20:00;;;;;;;44.90;18.10;;;0.50;99.90;;;;;;5079945;28;25074;-78
2023/01/29 09:22:28;;;;;;;36.70;17.33;;;0.60;99.90;;;;;;5079818;28;25071;-75
2023/01/29 09:24:56;;;;;;;45.47;19.27;;;0.70;99.90;;;;;;5097950;28;25104;-78
2023/01/29 09:27:23;;;;;;;38.97;17.67;;;0.80;99.90;;;;;;5097570;28;25058;-78
2023/01/29 09:29:50;;;;;;;39.42;17.88;;;0.90;99.90;;;;;;5079715;28;25078;-81
2023/01/29 09:32:18;;;;;;;37.97;17.67;;;1.00;99.90;;;;;;5079542;28;25100;-77
2023/01/29 09:34:46;;;;;;;42.83;18.13;;;1.00;99.90;;;;;;5097546;28;25091;-78
2023/01/29 09:37:16;;;;;;;39.15;17.35;;;1.10;99.90;;;;;;5097443;28;25097;-78
2023/01/29 09:39:44;;;;;;;36.55;16.45;;;1.10;99.90;;;;;;5097659;28;25130;-86
2023/01/29 09:42:41;;;;;;;37.80;17.42;;;1.10;99.90;;;;;;5079760;28;25064;-84
2023/01/29 09:45:25;;;;;;;38.08;16.00;;;1.10;99.90;;;;;;5077666;28;25105;-85
2023/01/29 09:48:04;;;;;;;35.72;17.20;;;1.00;99.90;;;;;;5059149;28;25103;-87
2023/01/29 09:50:43;;;;;;;41.05;16.15;;;1.00;99.90;;;;;;5076751;28;25065;-87
2023/01/29 09:53:34;;;;;;;40.40;16.40;;;1.10;99.90;;;;;;5077328;28;25058;-88
2023/01/29 09:56:20;;;;;;;32.20;14.75;;;1.10;99.90;;;;;;5076606;28;25075;-86
2023/01/29 09:58:48;;;;;;;38.03;17.30;;;1.10;99.90;;;;;;5058225;28;25103;-94
2023/01/29 10:01:39;;;;;;;34.35;16.45;;;1.20;99.90;;;;;;5058814;28;25097;-91
2023/01/29 10:04:38;;;;;;;33.80;14.50;;;1.20;99.90;;;;;;5060076;28;25067;-89
2023/01/29 10:07:19;;;;;;;36.00;16.33;;;1.20;99.90;;;;;;5059732;28;25102;-90
2023/01/29 10:10:40;;;;;;;37.03;16.48;;;1.20;99.90;;;;;;5059110;28;25133;-82
2023/01/29 10:13:29;;;;;;;34.42;14.48;;;1.20;99.90;;;;;;5018668;28;25118;-88
2023/01/29 10:16:36;;;;;;;37.47;16.45;;;1.20;99.90;;;;;;5057499;28;25071;-87
2023/01/29 10:19:40;;;;;;;31.77;13.45;;;1.20;99.90;;;;;;5059086;28;25053;-87
2023/01/29 10:22:36;;;;;;;38.60;16.38;;;1.20;99.90;;;;;;5058775;28;25105;-87
2023/01/29 10:25:10;;;;;;;31.77;15.13;;;1.20;99.90;;;;;;5059423;28;25097;-90
2023/01/29 10:27:40;;;;;;;39.42;16.23;;;1.30;99.90;;;;;;5058865;28;25104;-86
2023/01/29 10:30:22;;;;;;;34.42;15.85;;;1.40;99.90;;;;;;5076703;28;25098;-77
2023/01/29 10:32:51;;;;;;;36.42;16.80;;;1.30;99.90;;;;;;5059091;28;25062;-90
2023/01/29 10:35:25;;;;;;;35.72;16.48;;;1.40;99.90;;;;;;5058861;28;25060;-93
2023/01/29 10:37:53;;;;;;;40.47;15.55;;;1.40;99.90;;;;;;5059433;28;25062;-94
2023/01/29 10:40:40;;;;;;;32.95;15.98;;;1.40;99.90;;;;;;5058839;28;25123;-90
2023/01/29 10:43:27;;;;;;;35.67;16.25;;;1.40;99.90;;;;;;5058151;28;25127;-93
2023/01/29 10:46:38;;;;;;;34.78;15.82;;;1.50;99.90;;;;;;5070121;28;25051;-88
2023/01/29 10:49:27;;;;;;;34.65;15.00;;;1.50;99.90;;;;;;5075540;28;25075;-88
2023/01/29 10:52:23;;;;;;;32.83;14.77;;;1.50;99.90;;;;;;5096777;28;25063;-88
2023/01/29 10:54:57;;;;;;;33.47;14.43;;;1.50;99.90;;;;;;5078907;28;25102;-81
2023/01/29 10:57:28;;;;;;;33.97;14.50;;;1.50;99.90;;;;;;5096774;28;25065;-88
2023/01/29 11:00:23;;;;;;;31.40;13.98;;;1.50;99.90;;;;;;5079042;28;25093;-90
2023/01/29 11:02:51;;;;;;;33.95;14.48;;;1.50;99.90;;;;;;5078916;28;25137;-86
2023/01/29 11:05:33;;;;;;;34.53;15.98;;;1.60;99.90;;;;;;5096560;28;25073;-84
2023/01/29 11:08:17;;;;;;;30.90;14.07;;;1.60;99.90;;;;;;5099775;28;25072;-81
2023/01/29 11:11:00;;;;;;;28.10;13.75;;;1.60;99.90;;;;;;5082670;28;25136;-73
2023/01/29 11:13:39;;;;;;;28.67;13.98;;;1.60;99.90;;;;;;5101029;28;25106;-82
2023/01/29 11:16:08;;;;;;;29.90;13.98;;;1.60;99.90;;;;;;5082317;28;25152;-84
2023/01/29 11:19:00;;;;;;;35.90;16.00;;;1.60;99.90;;;;;;5100495;28;25150;-84
2023/01/29 11:21:28;;;;;;;34.97;14.77;;;1.60;99.90;;;;;;5100131;28;25091;-82
2023/01/29 11:24:17;;;;;;;27.45;13.00;;;1.70;99.90;;;;;;5100124;28;25120;-80
2023/01/29 11:26:47;;;;;;;23.35;11.98;;;1.70;99.90;;;;;;5082054;28;25061;-83
2023/01/29 11:29:33;;;;;;;28.42;13.25;;;1.80;99.90;;;;;;5082061;28;25059;-83
2023/01/29 11:32:12;;;;;;;26.88;12.02;;;1.80;99.90;;;;;;5082477;28;25087;-88
2023/01/29 11:34:59;;;;;;;29.33;12.20;;;1.90;99.90;;;;;;5081434;28;25053;-90
2023/01/29 11:37:39;;;;;;;29.50;13.52;;;1.90;99.90;;;;;;5082125;28;25076;-88
2023/01/29 11:40:26;;;;;;;30.77;13.70;;;2.00;99.90;;;;;;5100253;28;25108;-89
2023/01/29 11:42:54;;;;;;;24.63;10.75;;;2.10;99.90;;;;;;5089305;28;25099;-88
2023/01/29 11:45:31;;;;;;;25.35;11.20;;;2.00;99.90;;;;;;5081990;28;25110;-89
2023/01/29 11:47:59;;;;;;;24.45;11.90;;;2.10;99.90;;;;;;5099925;28;25077;-88
2023/01/29 11:50:29;;;;;;;23.95;10.95;;;2.00;99.90;;;;;;5099720;28;25108;-92
2023/01/29 11:53:00;;;;;;;24.38;11.15;;;2.00;99.90;;;;;;5081224;28;25066;-92
2023/01/29 11:55:32;;;;;;;22.63;10.50;;;2.00;99.90;;;;;;5080767;28;25050;-88
2023/01/29 11:58:11;;;;;;;18.15;8.82;;;2.00;99.90;;;;;;5081245;28;25118;-87
2023/01/29 12:00:41;;;;;;;28.70;10.88;;;2.00;99.90;;;;;;5099704;28;25062;-81
2023/01/29 12:03:43;;;;;;;27.33;10.57;;;2.00;99.90;;;;;;5081633;28;25104;-90
2023/01/29 12:06:23;;;;;;;20.63;10.23;;;2.00;99.90;;;;;;5081310;28;25068;-87
2023/01/29 12:08:56;;;;;;;20.00;9.90;;;2.00;99.90;;;;;;5099532;28;25071;-85
2023/01/29 12:11:34;;;;;;;21.58;8.00;;;2.00;99.90;;;;;;5099338;28;25096;-84
2023/01/29 12:14:05;;;;;;;22.92;9.93;;;2.00;99.90;;;;;;5099318;28;25099;-83
2023/01/29 12:16:42;;;;;;;20.55;10.00;;;2.00;99.90;;;;;;5099246;28;25087;-85
2023/01/29 12:19:25;;;;;;;22.45;9.95;;;2.00;99.90;;;;;;5098200;28;25076;-87
2023/01/29 12:22:31;;;;;;;26.13;10.90;;;1.90;99.90;;;;;;5081852;28;25071;-87
2023/01/29 12:25:13;;;;;;;23.58;9.10;;;1.90;99.90;;;;;;5058934;28;25113;-85
2023/01/29 12:28:09;;;;;;;23.17;10.68;;;1.90;99.90;;;;;;5080970;28;25084;-90
2023/01/29 12:31:29;;;;;;;21.38;10.55;;;1.90;99.90;;;;;;5081776;28;25064;-93
2023/01/29 12:34:15;;;;;;;25.90;12.02;;;1.90;99.90;;;;;;5079154;28;25066;-92
2023/01/29 12:37:04;;;;;;;24.55;9.27;;;1.80;99.90;;;;;;5081407;28;25117;-93
2023/01/29 12:39:32;;;;;;;21.63;9.38;;;1.80;99.90;;;;;;5081570;28;25116;-93
2023/01/29 12:42:08;;;;;;;21.60;10.98;;;1.80;99.90;;;;;;5081433;28;25053;-92
2023/01/29 12:44:55;;;;;;;;;;;1.80;99.90;;;;;;5078160;28;25117;-93
2023/01/29 12:47:47;;;;;;;19.60;9.07;;;1.80;99.90;;;;;;5046413;28;25064;-91
2023/01/29 12:50:34;;;;;;;16.65;8.40;;;1.90;99.90;;;;;;5077856;28;25061;-92
2023/01/29 12:53:33;;;;;;;19.92;9.27;;;1.90;99.90;;;;;;5077548;28;25078;-91
2023/01/29 12:56:14;;;;;;;23.00;10.90;;;1.90;99.90;;;;;;5057837;28;25118;-91
2023/01/29 12:58:50;;;;;;;22.50;10.88;;;1.90;99.90;;;;;;5077609;28;25077;-92
2023/01/29 13:01:31;;;;;;;25.17;11.60;;;1.90;99.90;;;;;;5077536;28;25071;-92
2023/01/29 13:04:15;;;;;;;19.63;8.77;;;1.90;99.90;;;;;;5077795;28;25118;-92
2023/01/29 13:06:55;;;;;;;24.52;9.98;;;1.90;99.90;;;;;;5077287;28;25148;-92
2023/01/29 13:09:31;;;;;;;23.25;10.70;;;1.90;99.90;;;;;;5077455;28;25070;-91
2023/01/29 13:12:05;;;;;;;23.42;10.75;;;1.90;99.90;;;;;;5077323;28;25059;-92
2023/01/29 13:15:03;;;;;;;26.67;11.10;;;1.90;99.90;;;;;;5077263;28;25117;-91
2023/01/29 13:17:45;;;;;;;24.17;11.18;;;1.90;99.90;;;;;;5077159;28;25080;-92
2023/01/29 13:20:42;;;;;;;26.58;12.45;;;1.90;99.90;;;;;;5077334;28;25112;-92
2023/01/29 13:23:22;;;;;;;26.75;11.20;;;1.90;99.90;;;;;;5064518;28;25067;-92
2023/01/29 13:25:53;;;;;;;26.60;12.80;;;1.80;99.90;;;;;;5077044;28;25111;-92
2023/01/29 13:28:27;;;;;;;24.95;12.07;;;1.90;99.90;;;;;;5077029;28;25051;-91
2023/01/29 13:31:45;;;;;;;29.42;12.35;;;1.80;99.90;;;;;;5076708;28;25158;-92
2023/01/29 13:34:32;;;;;;;57.63;18.58;;;1.80;99.90;;;;;;5062964;28;25124;-93
2023/01/29 13:39:47;;;;;;;25.53;12.90;;;1.70;99.90;;;;;;5512949;22;25082;-90
2023/01/29 13:42:44;;;;;;;28.77;12.40;;;1.70;99.90;;;;;;5036812;28;25060;-91
2023/01/29 13:45:20;;;;;;;;;;;1.70;99.90;;;;;;5088406;22;25137;-91
2023/01/29 13:47:47;;;;;;;28.35;12.50;;;1.70;99.90;;;;;;5040085;28;25117;-91
2023/01/29 13:50:46;;;;;;;23.00;10.43;;;1.70;99.90;;;;;;5040085;28;25075;-91